< Typhoon 199229 1992 Season Typhoon 199231 >
Typhoon 199230 (GAY)
General InformationTrack Information on Google MapsDetailed Wind InformationList of All Images || Disaster Info.ResourceGoogle EarthGE AnimationAtom FeedGeoJSON
Detalied Best Track (Time Zone = UTC)
Year Month Day Hour Lat. Long. Pressure (hPa) Wind (kt) Class Image Chart
1992 11 14 18 6.0 177.0 1004 0 2 Image Chart
1992 11 15 00 7.0 175.0 1002 0 2 Image Chart
1992 11 15 06 7.5 174.2 1000 0 2 Image Chart
1992 11 15 12 8.1 173.8 1000 0 2 Image Chart
1992 11 15 18 8.8 173.4 998 35 3 Image Chart
1992 11 16 00 9.5 173.0 994 40 3 Image Chart
1992 11 16 06 9.8 172.7 992 45 3 Image Chart
1992 11 16 12 9.9 172.2 990 45 3 Image Chart
1992 11 16 18 9.8 171.7 990 45 3 Image Chart
1992 11 17 00 9.7 171.1 985 55 4 Image Chart
1992 11 17 06 9.8 170.6 980 55 4 Image Chart
1992 11 17 12 10.0 170.2 980 55 4 Image Chart
1992 11 17 18 10.3 169.7 980 55 4 Image Chart
1992 11 18 00 10.6 168.5 975 60 4 Image Chart
1992 11 18 06 10.6 167.4 965 70 5 Image Chart
1992 11 18 12 10.3 166.5 955 75 5 Image Chart
1992 11 18 18 10.2 165.8 945 80 5 Image Chart
1992 11 19 00 10.1 164.8 935 90 5 Image Chart
1992 11 19 06 10.1 164.0 925 95 5 Image Chart
1992 11 19 12 9.9 162.9 920 100 5 Image Chart
1992 11 19 18 9.9 162.1 920 100 5 Image Chart
1992 11 20 00 10.1 161.1 915 100 5 Image Chart
1992 11 20 06 10.3 160.0 915 100 5 Image Chart
1992 11 20 12 10.5 158.7 910 105 5 Image Chart
1992 11 20 18 10.8 157.4 910 105 5 Image Chart
1992 11 21 00 11.4 156.0 900 110 5 Image Chart
1992 11 21 06 11.9 154.4 900 110 5 Image Chart
1992 11 21 12 12.1 152.9 900 110 5 Image Chart
1992 11 21 18 12.2 151.7 905 105 5 Image Chart
1992 11 22 00 12.4 150.4 915 100 5 Image Chart
1992 11 22 06 12.6 149.0 925 95 5 Image Chart
1992 11 22 12 12.8 147.9 935 90 5 Image Chart
1992 11 22 18 13.0 146.9 940 85 5 Image Chart
1992 11 23 00 13.2 145.3 940 85 5 Image Chart
1992 11 23 06 13.5 143.6 950 80 5 Image Chart
1992 11 23 12 13.7 142.3 955 75 5 Image Chart
1992 11 23 18 14.0 141.0 955 75 5 Image Chart
1992 11 24 00 14.4 139.4 960 75 5 Image Chart
1992 11 24 06 14.7 138.5 965 70 5 Image Chart
1992 11 24 12 15.1 137.3 970 65 5 Image Chart
1992 11 24 18 15.7 136.2 970 65 5 Image Chart
1992 11 25 00 16.3 134.8 960 75 5 Image Chart
1992 11 25 06 16.8 133.8 955 80 5 Image Chart
1992 11 25 12 17.5 133.1 945 85 5 Image Chart
1992 11 25 18 17.9 132.6 935 90 5 Image Chart
1992 11 26 00 18.1 132.1 935 90 5 Image Chart
1992 11 26 06 18.2 131.9 940 85 5 Image Chart
1992 11 26 12 18.3 131.7 945 80 5 Image Chart
1992 11 26 18 18.3 131.5 950 80 5 Image Chart
1992 11 27 00 18.3 131.3 950 80 5 Image Chart
1992 11 27 06 18.3 131.0 955 75 5 Image Chart
1992 11 27 12 18.4 130.7 960 75 5 Image Chart
1992 11 27 18 18.8 130.4 965 70 5 Image Chart
1992 11 28 00 19.3 130.1 970 65 5 Image Chart
1992 11 28 06 19.8 129.8 975 60 4 Image Chart
1992 11 28 12 20.7 129.8 980 55 4 Image Chart
1992 11 28 18 21.7 130.1 985 50 4 Image Chart
1992 11 29 00 22.2 130.1 985 50 4 Image Chart
1992 11 29 03 22.5 130.2 985 50 4 Image Chart
1992 11 29 06 22.7 130.2 990 45 3 Image Chart
1992 11 29 09 23.0 130.2 992 45 3 Image Chart
1992 11 29 12 23.4 130.2 994 45 3 Image Chart
1992 11 29 15 23.8 130.1 996 40 3 Image Chart
1992 11 29 18 24.0 130.0 998 35 3 Image Chart
1992 11 29 21 24.3 129.9 1002 35 3 Image Chart
1992 11 30 00 24.6 129.9 1004 0 6 Image Chart
1992 11 30 03 24.9 129.9 1006 0 6 Image Chart
1992 11 30 06 25.0 130.0 1008 0 6 Image Chart
1992 11 30 12 26.0 130.8 1012 0 6 Image Chart
1992 11 30 18 27.0 132.0 1012 0 6 Image Chart
1992 12 1 00 29.0 134.0 1012 0 6 Image Chart
1992 12 1 06 31.1 135.5 1008 0 6 Image Chart
1992 12 1 12 32.0 138.0 1008 0 6 Image Chart
1992 12 1 18 33.1 141.8 1006 0 6 Image Chart
1992 12 2 00 34.2 145.8 1006 0 6 Image Chart
1992 12 2 06 36.2 150.7 1002 0 6 Image Chart
1992 12 2 12 37.3 155.2 1000 0 6 Image Chart
1992 12 2 18 38.5 160.9 998 0 6 Image Chart
1992 12 3 00 41.5 166.2 992 0 6 Image Chart
1992 12 3 06 43.5 171.3 986 0 6 Image Chart
1992 12 3 12 46.7 173.9 980 0 6 Image Chart
1992 12 3 18 48.8 177.0 974 0 6 Image Chart
1992 12 4 00 50.2 181.2 968 0 6 Image Chart
Japan Meteorological Agency Best Track Data | Correction Date : 1992-12-25
< Typhoon 199229 1992 Season Typhoon 199231 >

Help